Terminal Aerodrome Forecast
Issued by NWS St Louis, MO

Home | Current Version | Previous Version | Text Only | Print | Product List | Glossary On
Versions: 1 2 3 4 5 6 7 8 9 10 11 12 13 14 15 16 17 18 19 20 21 22 23 24 25 26 27 28 29 30
000
FTUS43 KLSX 061713 AAC
TAFCOU
TAF AMD
KCOU 061713Z 0617/0712 32012KT P6SM OVC012
     FM061800 31012G18KT P6SM SCT030
     FM061900 31012KT P6SM SCT200
     FM062300 29007KT P6SM FEW250
     FM070800 30005KT P6SM BKN110=

USA.gov is the U.S. government's official web portal to all federal, state and local government web resources and services.